createdAt,value
2017-10-18T00:00:32.275Z,99.99
2017-10-18T00:01:32.266Z,99.99
2017-10-18T00:02:32.258Z,99.99
2017-10-18T00:03:32.249Z,99.99
2017-10-18T00:04:32.242Z,99.99
2017-10-18T00:05:32.233Z,99.99
2017-10-18T00:06:32.227Z,99.99
2017-10-18T00:07:32.218Z,99.99
2017-10-18T00:08:32.209Z,99.99
2017-10-18T00:09:32.200Z,99.99
2017-10-18T00:10:32.194Z,99.99
2017-10-18T00:11:32.184Z,99.99
2017-10-18T00:12:32.175Z,99.99
2017-10-18T00:13:32.169Z,99.99
2017-10-18T00:14:32.163Z,99.99
2017-10-18T00:15:32.154Z,99.99
2017-10-18T00:16:32.144Z,99.99
2017-10-18T00:17:32.136Z,99.99
2017-10-18T00:18:32.127Z,99.99
2017-10-18T00:19:32.120Z,99.99
2017-10-18T00:20:32.118Z,99.99
2017-10-18T00:21:32.103Z,99.99
2017-10-18T00:22:32.094Z,99.99
2017-10-18T00:23:32.088Z,99.99
2017-10-18T00:24:32.891Z,99.99
2017-10-18T00:25:32.073Z,99.99
2017-10-18T00:26:32.061Z,99.99
2017-10-18T00:27:32.055Z,99.99
2017-10-18T00:28:32.046Z,99.99
2017-10-18T00:29:32.038Z,99.99
2017-10-18T00:30:32.029Z,99.99
2017-10-18T00:31:32.023Z,99.99
2017-10-18T00:32:32.017Z,99.99
2017-10-18T00:33:32.010Z,99.99
2017-10-18T00:34:31.999Z,99.99
2017-10-18T00:35:31.989Z,99.99
2017-10-18T00:36:31.979Z,99.99
2017-10-18T00:37:31.972Z,99.99
2017-10-18T00:38:31.964Z,99.99
2017-10-18T00:39:31.955Z,99.99
2017-10-18T00:40:31.951Z,99.99
2017-10-18T00:41:31.942Z,99.99
2017-10-18T00:42:31.931Z,99.99
2017-10-18T00:43:31.923Z,99.99
2017-10-18T00:44:31.913Z,99.99
2017-10-18T00:45:31.912Z,99.99
2017-10-18T00:46:31.901Z,99.99
2017-10-18T00:47:31.896Z,99.99
2017-10-18T00:48:31.882Z,99.99
2017-10-18T00:49:31.884Z,99.99
2017-10-18T00:50:31.865Z,99.99
2017-10-18T00:51:31.857Z,99.99
2017-10-18T00:52:31.849Z,99.99
2017-10-18T00:53:31.841Z,99.99
2017-10-18T00:54:31.835Z,99.99
2017-10-18T00:55:31.823Z,99.99
2017-10-18T00:56:31.818Z,99.99
2017-10-18T00:57:31.807Z,99.99
2017-10-18T00:58:31.798Z,99.99
2017-10-18T00:59:31.790Z,99.99
2017-10-18T01:00:31.787Z,99.99
2017-10-18T01:01:31.776Z,99.99
2017-10-18T01:02:31.768Z,99.99
2017-10-18T01:03:31.757Z,99.99
2017-10-18T01:04:31.754Z,99.99
2017-10-18T01:05:31.742Z,99.99
2017-10-18T01:06:31.732Z,99.99
2017-10-18T01:07:31.725Z,99.99
2017-10-18T01:08:31.718Z,99.99
2017-10-18T01:09:31.708Z,99.99
2017-10-18T01:10:31.700Z,99.99
2017-10-18T01:11:31.694Z,99.99
2017-10-18T01:12:31.681Z,99.99
2017-10-18T01:13:31.679Z,99.99
2017-10-18T01:14:31.664Z,99.99
2017-10-18T01:15:31.658Z,99.99
2017-10-18T01:16:31.650Z,99.99
2017-10-18T01:17:31.642Z,99.99
2017-10-18T01:18:31.632Z,99.99
2017-10-18T01:19:31.624Z,99.99
2017-10-18T01:20:31.621Z,99.99
2017-10-18T01:21:31.608Z,99.99
2017-10-18T01:22:31.601Z,99.99
2017-10-18T01:23:31.591Z,99.99
2017-10-18T01:24:31.583Z,99.99
2017-10-18T01:25:31.574Z,99.99
2017-10-18T01:26:31.566Z,99.99
2017-10-18T01:27:31.560Z,99.99
2017-10-18T01:28:31.549Z,99.99
2017-10-18T01:29:31.540Z,99.99
2017-10-18T01:30:31.531Z,99.99
2017-10-18T01:31:31.524Z,99.99
2017-10-18T01:32:31.519Z,99.99
2017-10-18T01:33:31.507Z,99.99
2017-10-18T01:34:31.503Z,99.99
2017-10-18T01:35:31.496Z,99.99
2017-10-18T01:36:31.488Z,99.99
2017-10-18T01:37:32.408Z,99.99
2017-10-18T01:38:31.469Z,99.99
2017-10-18T01:39:31.463Z,99.99
2017-10-18T01:40:31.448Z,99.99
2017-10-18T01:41:31.447Z,99.99
2017-10-18T01:42:31.430Z,99.99
2017-10-18T01:43:31.424Z,99.99
2017-10-18T01:44:31.421Z,99.99
2017-10-18T01:45:31.408Z,99.99
2017-10-18T01:46:31.398Z,99.99
2017-10-18T01:47:31.392Z,99.99
2017-10-18T01:48:31.382Z,99.99
2017-10-18T01:49:31.374Z,99.99
2017-10-18T01:50:31.364Z,99.99
2017-10-18T01:51:31.362Z,99.99
2017-10-18T01:52:31.349Z,99.99
2017-10-18T01:53:31.342Z,99.99
2017-10-18T01:54:31.342Z,99.99
2017-10-18T01:55:31.322Z,99.99
2017-10-18T01:56:31.315Z,99.99
2017-10-18T01:57:31.308Z,99.99
2017-10-18T01:58:31.297Z,99.99
2017-10-18T01:59:31.290Z,99.99
2017-10-18T02:00:31.279Z,99.99
2017-10-18T02:01:31.273Z,99.99
2017-10-18T02:02:31.264Z,99.99
2017-10-18T02:03:31.256Z,99.99
2017-10-18T02:04:31.250Z,99.99
2017-10-18T02:05:31.241Z,99.99
2017-10-18T02:06:31.233Z,99.99
2017-10-18T02:07:31.222Z,99.99
2017-10-18T02:08:31.917Z,99.99
2017-10-18T02:09:31.213Z,99.99
2017-10-18T02:10:31.197Z,99.99
2017-10-18T02:11:31.188Z,99.99
2017-10-18T02:12:31.180Z,99.99
2017-10-18T02:13:31.173Z,99.99
2017-10-18T02:14:31.163Z,99.99
2017-10-18T02:15:31.158Z,99.99
2017-10-18T02:16:31.148Z,99.99
2017-10-18T02:17:31.141Z,99.99
2017-10-18T02:18:31.130Z,99.99
2017-10-18T02:19:31.124Z,99.99
2017-10-18T02:20:32.919Z,99.99
2017-10-18T02:21:31.106Z,99.99
2017-10-18T02:22:31.098Z,99.99
2017-10-18T02:23:31.093Z,99.99
2017-10-18T02:24:31.082Z,99.99
2017-10-18T02:25:31.075Z,99.99
2017-10-18T02:26:31.066Z,99.99
2017-10-18T02:27:31.058Z,99.99
2017-10-18T02:28:31.048Z,99.99
2017-10-18T02:29:31.041Z,99.99
2017-10-18T02:30:31.030Z,99.99
2017-10-18T02:31:31.025Z,99.99
2017-10-18T02:32:31.019Z,99.99
2017-10-18T02:33:31.012Z,99.99
2017-10-18T02:34:30.999Z,99.99
2017-10-18T02:35:30.993Z,99.99
2017-10-18T02:36:30.982Z,99.99
2017-10-18T02:37:30.974Z,99.99
2017-10-18T02:38:30.964Z,99.99
2017-10-18T02:39:30.959Z,99.99
2017-10-18T02:40:30.951Z,99.99
2017-10-18T02:41:30.945Z,99.99
2017-10-18T02:42:30.937Z,99.99
2017-10-18T02:43:30.924Z,99.99
2017-10-18T02:44:31.431Z,99.99
2017-10-18T02:45:30.910Z,99.99
2017-10-18T02:46:30.902Z,99.99
2017-10-18T02:47:30.891Z,99.99
2017-10-18T02:48:30.883Z,99.99
2017-10-18T02:49:30.877Z,99.99
2017-10-18T02:50:30.867Z,99.99
2017-10-18T02:51:30.864Z,99.99
2017-10-18T02:52:30.856Z,99.99
2017-10-18T02:53:30.844Z,99.99
2017-10-18T02:54:30.833Z,99.99
2017-10-18T02:55:30.832Z,99.99
2017-10-18T02:56:30.817Z,99.99
2017-10-18T02:57:30.810Z,99.99
2017-10-18T02:58:30.801Z,99.99
2017-10-18T02:59:30.792Z,99.99
2017-10-18T03:00:30.819Z,99.99
2017-10-18T03:01:30.778Z,99.99
2017-10-18T03:02:30.770Z,99.99
2017-10-18T03:03:30.759Z,99.99
2017-10-18T03:04:30.753Z,99.99
2017-10-18T03:05:30.745Z,99.99
2017-10-18T03:06:30.738Z,99.99
2017-10-18T03:07:30.727Z,99.99
2017-10-18T03:08:30.722Z,99.99
2017-10-18T03:09:30.711Z,99.99
2017-10-18T03:10:30.702Z,99.99
2017-10-18T03:11:30.695Z,99.99
2017-10-18T03:12:30.686Z,99.99
2017-10-18T03:13:30.683Z,99.99
2017-10-18T03:14:30.670Z,99.99
2017-10-18T03:15:30.665Z,99.99
2017-10-18T03:16:30.655Z,99.99
2017-10-18T03:17:30.646Z,99.99
2017-10-18T03:18:30.636Z,99.99
2017-10-18T03:19:30.628Z,99.99
2017-10-18T03:20:30.620Z,99.99
2017-10-18T03:21:30.618Z,99.99
2017-10-18T03:22:30.604Z,99.99
2017-10-18T03:23:30.595Z,99.99
2017-10-18T03:24:30.589Z,99.99
2017-10-18T03:25:30.587Z,99.99
2017-10-18T03:26:30.573Z,99.99
2017-10-18T03:27:30.562Z,99.99
2017-10-18T03:28:30.555Z,99.99
2017-10-18T03:29:30.547Z,99.99
2017-10-18T03:30:30.541Z,99.99
2017-10-18T03:31:30.534Z,99.99
2017-10-18T03:32:30.522Z,99.99
2017-10-18T03:33:30.525Z,99.99
2017-10-18T03:34:30.507Z,99.99
2017-10-18T03:35:30.498Z,99.99
2017-10-18T03:36:30.490Z,99.99
2017-10-18T03:37:30.482Z,99.99
2017-10-18T03:38:30.472Z,99.99
2017-10-18T03:39:30.468Z,99.99
2017-10-18T03:40:30.458Z,99.99
2017-10-18T03:41:30.451Z,99.99
2017-10-18T03:42:30.447Z,99.99
2017-10-18T03:43:30.431Z,99.99
2017-10-18T03:44:30.425Z,99.99
2017-10-18T03:45:30.415Z,99.99
2017-10-18T03:46:30.407Z,99.99
2017-10-18T03:47:30.403Z,99.99
2017-10-18T03:48:30.391Z,99.99
2017-10-18T03:49:30.387Z,99.99
2017-10-18T03:50:30.375Z,99.99
2017-10-18T03:51:30.369Z,99.99
2017-10-18T03:52:30.361Z,99.99
2017-10-18T03:53:30.355Z,99.99
2017-10-18T03:54:30.347Z,99.99
2017-10-18T03:55:30.338Z,99.99
2017-10-18T03:56:30.327Z,99.99
2017-10-18T03:57:30.318Z,99.99
2017-10-18T03:58:30.945Z,99.99
2017-10-18T03:59:30.306Z,99.99
2017-10-18T04:00:30.293Z,99.99
2017-10-18T04:01:30.285Z,99.99
2017-10-18T04:02:30.278Z,99.99
2017-10-18T04:03:30.269Z,99.99
2017-10-18T04:04:30.261Z,99.99
2017-10-18T04:05:30.256Z,99.99
2017-10-18T04:06:30.245Z,99.99
2017-10-18T04:07:30.949Z,99.99
2017-10-18T04:08:30.229Z,99.99
2017-10-18T04:09:30.955Z,99.99
2017-10-18T04:10:30.213Z,99.99
2017-10-18T04:11:30.206Z,99.99
2017-10-18T04:12:30.195Z,99.99
2017-10-18T04:13:30.190Z,99.99
2017-10-18T04:14:30.185Z,99.99
2017-10-18T04:15:30.168Z,99.99
2017-10-18T04:16:30.163Z,99.99
2017-10-18T04:17:30.156Z,99.99
2017-10-18T04:18:30.144Z,99.99
2017-10-18T04:19:30.135Z,99.99
2017-10-18T04:20:30.130Z,99.99
2017-10-18T04:21:30.120Z,99.99
2017-10-18T04:22:30.115Z,99.99
2017-10-18T04:23:30.109Z,99.99
2017-10-18T04:24:30.097Z,99.99
2017-10-18T04:25:30.088Z,99.99
2017-10-18T04:26:30.085Z,99.99
2017-10-18T04:27:30.071Z,99.99
2017-10-18T04:28:30.063Z,99.99
2017-10-18T04:29:30.055Z,99.99
2017-10-18T04:30:30.049Z,99.99
2017-10-18T04:31:30.040Z,99.99
2017-10-18T04:32:30.034Z,99.99
2017-10-18T04:33:30.024Z,99.99
2017-10-18T04:34:30.020Z,99.99
2017-10-18T04:35:30.005Z,99.99
2017-10-18T04:36:32.955Z,99.99
2017-10-18T04:37:29.994Z,99.99
2017-10-18T04:38:29.982Z,99.99
2017-10-18T04:39:29.974Z,99.99
2017-10-18T04:40:29.990Z,99.99
2017-10-18T04:41:29.959Z,99.99
2017-10-18T04:42:29.950Z,99.99
2017-10-18T04:43:29.942Z,99.99
2017-10-18T04:44:29.934Z,99.99
2017-10-18T04:45:29.926Z,99.99
2017-10-18T04:46:29.917Z,99.99
2017-10-18T04:47:29.909Z,99.99
2017-10-18T04:48:29.901Z,99.99
2017-10-18T04:49:29.894Z,99.99
2017-10-18T04:50:29.888Z,99.99
2017-10-18T04:51:29.899Z,99.99
2017-10-18T04:52:29.872Z,99.99
2017-10-18T04:53:29.862Z,99.99
2017-10-18T04:54:29.853Z,99.99
2017-10-18T04:55:29.844Z,99.99
2017-10-18T04:56:29.837Z,99.99
2017-10-18T04:57:29.834Z,99.99
2017-10-18T04:58:29.819Z,99.99
2017-10-18T04:59:29.812Z,99.99
2017-10-18T05:00:29.805Z,99.99
2017-10-18T05:01:29.798Z,99.99
2017-10-18T05:02:29.789Z,99.99
2017-10-18T05:03:29.782Z,99.99
2017-10-18T05:04:29.774Z,99.99
2017-10-18T05:05:29.766Z,99.99
2017-10-18T05:06:29.757Z,99.99
2017-10-18T05:07:29.750Z,99.99
2017-10-18T05:08:29.742Z,99.99
2017-10-18T05:09:29.736Z,99.99
2017-10-18T05:10:29.725Z,99.99
2017-10-18T05:11:29.718Z,99.99
2017-10-18T05:12:30.470Z,99.99
2017-10-18T05:13:29.700Z,99.99
2017-10-18T05:14:30.461Z,99.99
2017-10-18T05:15:29.684Z,99.99
2017-10-18T05:16:29.676Z,99.99
2017-10-18T05:17:29.668Z,99.99
2017-10-18T05:18:29.660Z,99.99
2017-10-18T05:19:29.653Z,99.99
2017-10-18T05:20:29.643Z,99.99
2017-10-18T05:21:29.638Z,99.99
2017-10-18T05:22:29.627Z,99.99
2017-10-18T05:23:29.619Z,99.99
2017-10-18T05:24:29.609Z,99.99
2017-10-18T05:25:29.605Z,99.99
2017-10-18T05:26:29.596Z,99.99
2017-10-18T05:27:29.589Z,99.99
2017-10-18T05:28:29.578Z,99.99
2017-10-18T05:29:29.572Z,99.99
2017-10-18T05:30:29.563Z,99.99
2017-10-18T05:31:29.554Z,99.99
2017-10-18T05:32:29.552Z,99.99
2017-10-18T05:33:29.543Z,99.99
2017-10-18T05:34:29.531Z,99.99
2017-10-18T05:35:29.523Z,99.99
2017-10-18T05:36:29.520Z,99.99
2017-10-18T05:37:29.506Z,99.99
2017-10-18T05:38:29.498Z,99.99
2017-10-18T05:39:29.493Z,99.99
2017-10-18T05:40:29.482Z,99.99
2017-10-18T05:41:29.475Z,99.99
2017-10-18T05:42:29.466Z,99.99
2017-10-18T05:43:29.462Z,99.99
2017-10-18T05:44:29.452Z,99.99
2017-10-18T05:45:29.445Z,99.99
2017-10-18T05:46:29.434Z,99.99
2017-10-18T05:47:29.426Z,99.99
2017-10-18T05:48:29.419Z,99.99
2017-10-18T05:49:29.410Z,99.99
2017-10-18T05:50:29.404Z,99.99
2017-10-18T05:51:29.395Z,99.99
2017-10-18T05:52:29.393Z,99.99
2017-10-18T05:53:29.379Z,99.99
2017-10-18T05:54:29.376Z,99.99
2017-10-18T05:55:29.363Z,99.99
2017-10-18T05:56:29.355Z,99.99
2017-10-18T05:57:29.347Z,99.99
2017-10-18T05:58:29.338Z,99.99
2017-10-18T05:59:29.335Z,99.99
2017-10-18T06:00:29.327Z,99.99
2017-10-18T06:01:29.320Z,99.99
2017-10-18T06:02:29.305Z,99.99
2017-10-18T06:03:29.298Z,99.99
2017-10-18T06:04:29.296Z,99.99
2017-10-18T06:05:29.285Z,99.99
2017-10-18T06:06:30.976Z,99.99
2017-10-18T06:07:29.982Z,99.99
2017-10-18T06:08:29.262Z,99.99
2017-10-18T06:09:29.251Z,99.99
2017-10-18T06:10:29.251Z,99.99
2017-10-18T06:11:29.233Z,99.99
2017-10-18T06:12:29.227Z,99.99
2017-10-18T06:13:29.217Z,99.99
2017-10-18T06:14:30.992Z,99.99
2017-10-18T06:15:45.069Z,99.99
2017-10-18T06:16:30.997Z,99.99
2017-10-18T06:17:29.202Z,99.99
2017-10-18T06:18:29.191Z,99.99
2017-10-18T06:19:29.201Z,99.99
2017-10-18T06:20:29.167Z,99.99
2017-10-18T06:21:29.158Z,99.99
2017-10-18T06:22:29.148Z,99.99
2017-10-18T06:23:29.156Z,99.99
2017-10-18T06:24:29.142Z,99.99
2017-10-18T06:25:29.126Z,99.99
2017-10-18T06:26:29.143Z,99.99
2017-10-18T06:27:29.110Z,99.99
2017-10-18T06:28:29.135Z,99.99
2017-10-18T06:29:29.093Z,99.99
2017-10-18T06:30:29.084Z,99.99
2017-10-18T06:31:29.079Z,99.99
2017-10-18T06:32:29.068Z,99.99
2017-10-18T06:33:29.073Z,99.99
2017-10-18T06:34:29.982Z,99.99
2017-10-18T06:35:29.044Z,99.99
2017-10-18T06:36:29.039Z,99.99
2017-10-18T06:37:29.035Z,99.99
2017-10-18T06:38:29.021Z,99.99
2017-10-18T06:39:29.012Z,99.99
2017-10-18T06:40:29.004Z,99.99
2017-10-18T06:41:28.996Z,99.99
2017-10-18T06:42:28.993Z,99.99
2017-10-18T06:43:28.982Z,99.99
2017-10-18T06:44:28.973Z,99.99
2017-10-18T06:45:28.965Z,99.99
2017-10-18T06:46:28.958Z,99.99
2017-10-18T06:47:28.947Z,99.99
2017-10-18T06:48:28.941Z,99.99
2017-10-18T06:49:28.937Z,99.99
2017-10-18T06:50:28.925Z,99.99
2017-10-18T06:51:28.917Z,99.99
2017-10-18T06:52:28.909Z,99.99
2017-10-18T06:53:28.907Z,99.99
2017-10-18T06:54:28.897Z,99.99
2017-10-18T06:55:28.886Z,99.99
2017-10-18T06:56:28.880Z,99.99
2017-10-18T06:57:28.871Z,99.99
2017-10-18T06:58:28.863Z,99.99
2017-10-18T06:59:28.856Z,99.99
2017-10-18T07:00:28.851Z,99.99
2017-10-18T07:01:28.850Z,99.99
2017-10-18T07:02:28.831Z,99.99
2017-10-18T07:03:28.824Z,99.99
2017-10-18T07:04:28.816Z,99.99
2017-10-18T07:05:28.808Z,99.99
2017-10-18T07:06:28.805Z,99.99
2017-10-18T07:07:28.797Z,99.99
2017-10-18T07:08:28.790Z,99.99
2017-10-18T07:09:28.779Z,99.99
2017-10-18T07:10:28.772Z,99.99
2017-10-18T07:11:28.760Z,99.99
2017-10-18T07:12:28.753Z,99.99
2017-10-18T07:13:28.747Z,99.99
2017-10-18T07:14:28.739Z,99.99
2017-10-18T07:15:28.734Z,99.99
2017-10-18T07:16:28.723Z,99.99
2017-10-18T07:17:28.715Z,99.99
2017-10-18T07:18:28.712Z,99.99
2017-10-18T07:19:28.702Z,99.99
2017-10-18T07:20:28.699Z,99.99
2017-10-18T07:21:28.685Z,99.99
2017-10-18T07:22:28.676Z,99.99
2017-10-18T07:23:28.670Z,99.99
2017-10-18T07:24:28.664Z,99.99
2017-10-18T07:25:28.662Z,99.99
2017-10-18T07:26:28.646Z,99.99
2017-10-18T07:27:28.640Z,99.99
2017-10-18T07:28:28.631Z,99.99
2017-10-18T07:29:28.624Z,99.99
2017-10-18T07:30:28.616Z,99.99
2017-10-18T07:31:28.612Z,99.99
2017-10-18T07:32:28.600Z,99.99
2017-10-18T07:33:28.612Z,99.99
2017-10-18T07:34:28.584Z,99.99
2017-10-18T07:35:28.578Z,99.99
2017-10-18T07:36:28.569Z,99.99
2017-10-18T07:37:28.564Z,99.99
2017-10-18T07:38:28.555Z,99.99
2017-10-18T07:39:28.549Z,99.99
2017-10-18T07:40:28.551Z,99.99
2017-10-18T07:41:28.534Z,99.99
2017-10-18T07:42:28.524Z,99.99
2017-10-18T07:43:28.521Z,99.99
2017-10-18T07:44:28.510Z,99.99
2017-10-18T07:45:28.503Z,99.99
2017-10-18T07:46:28.497Z,99.99
2017-10-18T07:47:28.492Z,99.99
2017-10-18T07:48:28.481Z,99.99
2017-10-18T07:49:28.475Z,99.99
2017-10-18T07:50:28.468Z,99.99
2017-10-18T07:51:28.463Z,99.99
2017-10-18T07:52:28.455Z,99.99
2017-10-18T07:53:28.448Z,99.99
2017-10-18T07:54:28.438Z,99.99
2017-10-18T07:55:28.430Z,99.99
2017-10-18T07:56:28.428Z,99.99
2017-10-18T07:57:28.424Z,99.99
2017-10-18T07:58:28.410Z,99.99
2017-10-18T07:59:28.399Z,99.99
2017-10-18T08:00:28.402Z,99.99
2017-10-18T08:01:28.385Z,99.99
2017-10-18T08:02:28.378Z,99.99
2017-10-18T08:03:28.373Z,99.99
2017-10-18T08:04:28.365Z,99.99
2017-10-18T08:05:28.360Z,99.99
2017-10-18T08:06:28.349Z,99.99
2017-10-18T08:07:28.342Z,99.99
2017-10-18T08:08:28.337Z,99.99
2017-10-18T08:09:28.336Z,99.99
2017-10-18T08:10:28.322Z,99.99
2017-10-18T08:11:28.316Z,99.99
2017-10-18T08:12:28.307Z,99.99
2017-10-18T08:13:28.301Z,99.99
2017-10-18T08:14:28.296Z,99.99
2017-10-18T08:15:28.286Z,99.99
2017-10-18T08:16:28.283Z,99.99
2017-10-18T08:17:29.016Z,99.99
2017-10-18T08:18:28.269Z,99.99
2017-10-18T08:19:28.260Z,99.99
2017-10-18T08:20:28.252Z,99.99
2017-10-18T08:21:28.247Z,99.99
2017-10-18T08:22:28.245Z,99.99
2017-10-18T08:23:28.232Z,99.99
2017-10-18T08:24:28.228Z,99.99
2017-10-18T08:25:28.227Z,99.99
2017-10-18T08:26:28.211Z,99.99
2017-10-18T08:27:28.208Z,99.99
2017-10-18T08:28:28.199Z,99.99
2017-10-18T08:29:28.195Z,99.99
2017-10-18T08:30:28.185Z,99.99
2017-10-18T08:31:28.180Z,99.99
2017-10-18T08:32:28.176Z,99.99
2017-10-18T08:33:28.172Z,99.99
2017-10-18T08:34:28.166Z,99.99
2017-10-18T08:35:28.154Z,99.99
2017-10-18T08:36:28.146Z,99.99
2017-10-18T08:37:28.142Z,99.99
2017-10-18T08:38:28.135Z,99.99
2017-10-18T08:39:28.129Z,99.99
2017-10-18T08:40:28.123Z,99.99
2017-10-18T08:41:28.116Z,99.99
2017-10-18T08:42:28.107Z,99.99
2017-10-18T08:43:28.100Z,99.99
2017-10-18T08:44:28.095Z,99.99
2017-10-18T08:45:28.095Z,99.99
2017-10-18T08:46:28.080Z,99.99
2017-10-18T08:47:28.081Z,99.76
2017-10-18T08:48:28.074Z,99.67
2017-10-18T08:49:28.064Z,99.48
2017-10-18T08:50:28.064Z,99.48
2017-10-18T08:51:28.050Z,99.48
2017-10-18T08:52:28.045Z,99.48
2017-10-18T08:53:28.041Z,99.76
2017-10-18T08:54:28.039Z,99.00
2017-10-18T08:55:28.032Z,99.48
2017-10-18T08:56:28.043Z,99.19
2017-10-18T08:57:28.020Z,99.99
2017-10-18T08:58:28.015Z,99.99
2017-10-18T08:59:28.004Z,99.67
2017-10-18T09:00:27.996Z,99.57
2017-10-18T09:01:27.990Z,99.67
2017-10-18T09:02:27.983Z,99.19
2017-10-18T09:03:27.980Z,98.81
2017-10-18T09:04:27.976Z,98.52
2017-10-18T09:05:27.970Z,98.52
2017-10-18T09:06:27.959Z,98.90
2017-10-18T09:07:27.959Z,98.61
2017-10-18T09:08:27.948Z,98.66
2017-10-18T09:09:27.947Z,98.38
2017-10-18T09:10:27.937Z,97.61
2017-10-18T09:11:27.931Z,97.71
2017-10-18T09:12:27.929Z,97.33
2017-10-18T09:13:27.920Z,97.52
2017-10-18T09:14:27.914Z,97.71
2017-10-18T09:15:27.915Z,96.94
2017-10-18T09:16:27.904Z,96.47
2017-10-18T09:17:27.900Z,97.04
2017-10-18T09:18:27.892Z,96.84
2017-10-18T09:19:27.889Z,96.47
2017-10-18T09:20:27.882Z,96.75
2017-10-18T09:21:27.876Z,96.61
2017-10-18T09:22:27.870Z,96.89
2017-10-18T09:23:27.866Z,96.80
2017-10-18T09:24:27.860Z,96.99
2017-10-18T09:25:27.857Z,96.32
2017-10-18T09:26:27.850Z,96.70
2017-10-18T09:27:27.848Z,96.51
2017-10-18T09:28:27.840Z,96.22
2017-10-18T09:29:27.841Z,95.94
2017-10-18T09:30:27.832Z,95.94
2017-10-18T09:31:27.823Z,95.94
2017-10-18T09:32:27.819Z,95.94
2017-10-18T09:33:27.819Z,95.65
2017-10-18T09:34:27.810Z,95.94
2017-10-18T09:35:27.805Z,95.07
2017-10-18T09:36:27.807Z,95.36
2017-10-18T09:37:27.816Z,95.07
2017-10-18T09:38:27.808Z,94.98
2017-10-18T09:39:27.786Z,95.46
2017-10-18T09:40:27.777Z,95.07
2017-10-18T09:41:27.774Z,95.27
2017-10-18T09:42:27.778Z,95.56
2017-10-18T09:43:27.770Z,94.98
2017-10-18T09:44:27.760Z,95.75
2017-10-18T09:45:27.758Z,95.84
2017-10-18T09:46:27.747Z,96.22
2017-10-18T09:47:27.745Z,95.46
2017-10-18T09:48:27.736Z,96.22
2017-10-18T09:49:27.734Z,95.27
2017-10-18T09:50:27.726Z,95.84
2017-10-18T09:51:27.722Z,95.65
2017-10-18T09:52:27.723Z,95.07
2017-10-18T09:53:27.713Z,95.60
2017-10-18T09:54:27.709Z,95.22
2017-10-18T09:55:27.704Z,95.12
2017-10-18T09:56:27.726Z,94.74
2017-10-18T09:57:27.706Z,94.45
2017-10-18T09:58:27.699Z,94.26
2017-10-18T09:59:27.686Z,93.88
2017-10-18T10:00:27.713Z,93.83
2017-10-18T10:01:27.682Z,93.26
2017-10-18T10:02:27.672Z,92.58
2017-10-18T10:03:27.671Z,92.58
2017-10-18T10:04:27.664Z,91.57
2017-10-18T10:05:27.667Z,90.33
2017-10-18T10:06:27.660Z,90.61
2017-10-18T10:07:27.660Z,91.67
2017-10-18T10:08:27.657Z,92.72
2017-10-18T10:09:27.646Z,91.57
2017-10-18T10:10:27.641Z,91.52
2017-10-18T10:11:27.638Z,90.18
2017-10-18T10:12:27.635Z,88.59
2017-10-18T10:13:27.633Z,88.02
2017-10-18T10:14:27.633Z,86.91
2017-10-18T10:15:27.627Z,85.95
2017-10-18T10:16:27.625Z,84.89
2017-10-18T10:17:27.622Z,84.51
2017-10-18T10:18:27.621Z,85.85
2017-10-18T10:19:27.617Z,83.93
2017-10-18T10:20:27.617Z,84.08
2017-10-18T10:21:27.617Z,84.47
2017-10-18T10:22:27.614Z,85.48
2017-10-18T10:23:27.613Z,88.69
2017-10-18T10:24:27.607Z,88.31
2017-10-18T10:25:27.610Z,87.58
2017-10-18T10:26:27.606Z,85.18
2017-10-18T10:27:27.606Z,86.24
2017-10-18T10:28:27.606Z,85.71
2017-10-18T10:29:27.605Z,83.59
2017-10-18T10:30:27.606Z,83.74
2017-10-18T10:31:27.612Z,84.07
2017-10-18T10:32:27.613Z,82.87
2017-10-18T10:33:27.606Z,83.36
2017-10-18T10:34:27.603Z,84.51
2017-10-18T10:35:27.607Z,83.84
2017-10-18T10:36:27.606Z,83.74
2017-10-18T10:37:27.609Z,85.28
2017-10-18T10:38:27.610Z,84.26
2017-10-18T10:39:27.612Z,84.01
2017-10-18T10:40:27.613Z,80.65
2017-10-18T10:41:27.616Z,80.07
2017-10-18T10:42:27.617Z,79.98
2017-10-18T10:43:27.618Z,79.98
2017-10-18T10:44:27.624Z,80.07
2017-10-18T10:45:27.632Z,80.13
2017-10-18T10:46:27.629Z,80.71
2017-10-18T10:47:27.630Z,83.06
2017-10-18T10:48:27.633Z,83.73
2017-10-18T10:49:27.637Z,83.15
2017-10-18T10:50:27.640Z,80.79
2017-10-18T10:51:27.642Z,80.11
2017-10-18T10:52:27.648Z,79.05
2017-10-18T10:53:27.650Z,78.48
2017-10-18T10:54:27.654Z,80.25
2017-10-18T10:55:27.663Z,79.28
2017-10-18T10:56:27.661Z,79.48
2017-10-18T10:57:27.668Z,79.43
2017-10-18T10:58:27.671Z,77.78
2017-10-18T10:59:27.674Z,77.31
2017-10-18T11:00:27.680Z,75.67
2017-10-18T11:01:27.698Z,75.03
2017-10-18T11:02:27.689Z,73.14
2017-10-18T11:03:27.692Z,70.54
2017-10-18T11:04:27.697Z,71.02
2017-10-18T11:05:27.705Z,73.91
2017-10-18T11:06:27.709Z,73.72
2017-10-18T11:07:27.715Z,71.02
2017-10-18T11:08:27.722Z,71.98
2017-10-18T11:09:27.733Z,71.02
2017-10-18T11:10:27.730Z,72.81
2017-10-18T11:11:27.737Z,72.33
2017-10-18T11:12:27.751Z,73.78
2017-10-18T11:13:27.750Z,74.10
2017-10-18T11:14:27.758Z,71.15
2017-10-18T11:15:27.761Z,68.90
2017-10-18T11:16:27.770Z,70.15
2017-10-18T11:17:27.774Z,71.98
2017-10-18T11:18:27.776Z,71.02
2017-10-18T11:19:27.783Z,70.25
2017-10-18T11:20:27.791Z,72.56
2017-10-18T11:21:27.795Z,73.43
2017-10-18T11:22:27.801Z,72.89
2017-10-18T11:23:27.809Z,69.61
2017-10-18T11:24:27.814Z,70.61
2017-10-18T11:25:27.831Z,69.78
2017-10-18T11:26:27.836Z,68.07
2017-10-18T11:27:27.841Z,66.17
2017-10-18T11:28:27.854Z,65.98
2017-10-18T11:29:27.850Z,64.95
2017-10-18T11:30:27.864Z,64.85
2017-10-18T11:31:27.882Z,63.11
2017-10-18T11:32:27.868Z,63.37
2017-10-18T11:33:27.876Z,63.85
2017-10-18T11:34:27.885Z,63.02
2017-10-18T11:35:27.888Z,60.89
2017-10-18T11:36:27.898Z,61.89
2017-10-18T11:37:27.907Z,61.11
2017-10-18T11:38:27.908Z,60.72
2017-10-18T11:39:27.921Z,59.79
2017-10-18T11:40:27.924Z,56.95
2017-10-18T11:41:27.930Z,59.38
2017-10-18T11:42:27.936Z,59.86
2017-10-18T11:43:27.943Z,58.12
2017-10-18T11:44:27.950Z,58.89
2017-10-18T11:45:27.959Z,59.28
2017-10-18T11:46:27.965Z,58.50
2017-10-18T11:47:27.970Z,59.76
2017-10-18T11:48:27.979Z,59.56
2017-10-18T11:49:27.985Z,56.95
2017-10-18T11:50:27.992Z,56.88
2017-10-18T11:51:27.999Z,58.80
2017-10-18T11:52:28.006Z,56.37
2017-10-18T11:53:28.014Z,60.79
2017-10-18T11:54:28.023Z,62.82
2017-10-18T11:55:28.043Z,61.08
2017-10-18T11:56:28.038Z,62.05
2017-10-18T11:57:28.040Z,61.83
2017-10-18T11:58:28.052Z,61.92
2017-10-18T11:59:28.057Z,62.31
2017-10-18T12:00:28.066Z,61.34
2017-10-18T12:01:28.073Z,62.70
2017-10-18T12:02:28.075Z,64.43
2017-10-18T12:03:28.082Z,63.56
2017-10-18T12:04:28.090Z,64.82
2017-10-18T12:05:28.128Z,62.21
2017-10-18T12:06:28.102Z,60.67
2017-10-18T12:07:28.110Z,61.15
2017-10-18T12:08:28.116Z,62.98
2017-10-18T12:09:28.124Z,60.50
2017-10-18T12:10:28.129Z,62.44
2017-10-18T12:11:28.143Z,62.82
2017-10-18T12:12:28.144Z,61.37
2017-10-18T12:13:28.151Z,61.86
2017-10-18T12:14:28.161Z,62.15
2017-10-18T12:15:28.177Z,63.53
2017-10-18T12:16:28.170Z,59.25
2017-10-18T12:17:28.221Z,61.66
2017-10-18T12:18:28.202Z,63.05
2017-10-18T12:19:28.209Z,61.47
2017-10-18T12:20:28.224Z,61.27
2017-10-18T12:21:28.206Z,59.05
2017-10-18T12:22:28.209Z,59.41
2017-10-18T12:23:28.217Z,59.22
2017-10-18T12:24:28.221Z,59.70
2017-10-18T12:25:28.225Z,60.83
2017-10-18T12:26:28.231Z,63.43
2017-10-18T12:27:28.238Z,60.83
2017-10-18T12:28:28.243Z,64.40
2017-10-18T12:29:28.249Z,63.82
2017-10-18T12:30:28.256Z,62.57
2017-10-18T12:31:28.260Z,62.98
2017-10-18T12:32:28.266Z,62.12
2017-10-18T12:33:28.272Z,61.73
2017-10-18T12:34:28.279Z,63.28
2017-10-18T12:35:28.283Z,60.76
2017-10-18T12:36:28.288Z,62.31
2017-10-18T12:37:28.295Z,62.21
2017-10-18T12:38:28.301Z,60.86
2017-10-18T12:39:28.306Z,60.38
2017-10-18T12:40:28.311Z,59.60
2017-10-18T12:41:28.317Z,59.31
2017-10-18T12:42:28.322Z,59.48
2017-10-18T12:43:28.328Z,58.32
2017-10-18T12:44:28.333Z,62.18
2017-10-18T12:45:28.340Z,60.35
2017-10-18T12:46:28.343Z,59.38
2017-10-18T12:47:28.356Z,59.77
2017-10-18T12:48:28.361Z,61.80
2017-10-18T12:49:28.362Z,59.67
2017-10-18T12:50:28.368Z,60.86
2017-10-18T12:51:28.369Z,60.38
2017-10-18T12:52:28.377Z,60.47